Time;durP1;ratioP1;P1;durP2;ratioP2;P2;SDS_P1;SDS_P2;PMS_P1;PMS_P2;Temp;Humidity;BMP_temperature;BMP_pressure;BME280_temperature;BME280_humidity;BME280_pressure;Samples;Min_cycle;Max_cycle;Signal;HPM_P1;HPM_P2
2021/04/15 00:04:42;;;;;;;4.82;3.05;;;;;;;3.52;62.18;101076.25;10584736;28;20048;-80
2021/04/15 00:09:43;;;;;;;4.80;2.95;;;;;;;3.40;62.55;101079.53;10560379;28;20040;-81
2021/04/15 00:14:44;;;;;;;3.83;2.85;;;;;;;3.15;63.06;101073.13;10563845;28;20044;-80
2021/04/15 00:19:46;;;;;;;4.40;3.08;;;;;;;3.19;63.15;101076.66;10527773;28;20040;-80
2021/04/15 00:24:47;;;;;;;3.72;3.15;;;;;;;3.25;63.00;101063.75;10561096;28;20224;-80
2021/04/15 00:29:49;;;;;;;5.35;2.92;;;;;;;3.20;62.99;101061.06;10543068;28;20071;-80
2021/04/15 00:34:50;;;;;;;4.57;3.55;;;;;;;3.24;62.94;101056.81;10561390;28;20124;-80
2021/04/15 00:39:51;;;;;;;4.68;3.55;;;;;;;3.02;63.22;101058.22;10560806;28;20558;-80
2021/04/15 00:44:54;;;;;;;4.22;3.35;;;;;;;2.93;63.81;101060.66;10559759;28;20051;-80
2021/04/15 00:50:08;;;;;;;3.83;3.33;;;;;;;2.99;62.92;101065.94;10542398;28;20051;-80
2021/04/15 00:55:16;;;;;;;5.65;2.53;;;;;;;3.19;62.51;101063.66;10569577;28;20469;-80
2021/04/15 01:00:23;;;;;;;3.35;2.97;;;;;;;2.89;62.99;101064.94;10577921;28;20233;-80
2021/04/15 01:05:34;;;;;;;5.90;3.20;;;;;;;2.83;63.30;101061.34;10550283;28;20044;-81
2021/04/15 01:10:40;;;;;;;4.80;3.05;;;;;;;2.81;63.21;101065.66;10565883;28;20048;-81
2021/04/15 01:16:21;;;;;;;3.90;3.00;;;;;;;2.78;63.28;101066.47;10584121;28;20051;-80
2021/04/15 01:21:53;;;;;;;3.25;2.58;;;;;;;2.66;63.37;101071.47;10572042;28;20064;-81
2021/04/15 01:27:20;;;;;;;7.47;3.15;;;;;;;2.57;63.55;101071.28;10544629;28;20048;-81
2021/04/15 01:32:26;;;;;;;;;;;;;;;2.61;63.53;101065.31;10542504;28;20044;-81
2021/04/15 01:37:33;;;;;;;3.58;2.92;;;;;;;2.50;63.51;101060.81;10583543;28;19930;-82
2021/04/15 01:42:58;;;;;;;4.07;2.72;;;;;;;2.64;62.98;101065.38;10590835;28;20024;-79
2021/04/15 01:48:13;;;;;;;3.53;2.40;;;;;;;2.74;63.19;101068.13;10563398;28;20046;-80
2021/04/15 01:53:19;;;;;;;5.55;3.33;;;;;;;2.94;62.48;101052.88;10563280;28;20055;-80
2021/04/15 01:58:31;;;;;;;3.15;2.80;;;;;;;2.68;63.29;101061.97;10536828;28;20067;-81
2021/04/15 02:03:35;;;;;;;4.38;3.45;;;;;;;2.51;63.58;101053.91;10555723;28;20052;-81
2021/04/15 02:08:44;;;;;;;5.30;2.72;;;;;;;2.75;62.82;101056.91;10555374;28;20059;-79
2021/04/15 02:13:47;;;;;;;5.03;2.85;;;;;;;2.43;63.64;101063.25;10540274;28;20070;-80
2021/04/15 02:18:57;;;;;;;5.38;3.28;;;;;;;2.46;63.51;101059.00;10558275;28;20054;-79
2021/04/15 02:24:30;;;;;;;7.85;3.50;;;;;;;2.38;64.06;101063.19;10563678;28;20048;-80
2021/04/15 02:29:36;;;;;;;3.70;3.33;;;;;;;2.55;63.49;101055.69;10568940;28;20404;-81
2021/04/15 02:34:54;;;;;;;4.18;3.75;;;;;;;2.81;63.11;101056.13;10575914;28;20075;-80
2021/04/15 02:40:01;;;;;;;5.50;4.50;;;;;;;2.50;63.92;101057.34;10558913;28;20040;-81
2021/04/15 02:45:34;;;;;;;5.68;5.18;;;;;;;2.64;63.50;101057.59;10541901;28;20494;-81
2021/04/15 02:50:37;;;;;;;6.00;5.50;;;;;;;2.67;63.73;101055.91;10558838;28;20040;-81
2021/04/15 02:55:46;;;;;;;5.93;4.97;;;;;;;2.49;64.44;101058.22;10559254;28;20051;-81
2021/04/15 03:00:50;;;;;;;10.02;5.00;;;;;;;2.46;64.49;101058.13;10573066;28;20058;-82
2021/04/15 03:05:58;;;;;;;6.50;5.90;;;;;;;2.44;64.68;101060.72;10575910;28;20036;-81
2021/04/15 03:11:06;;;;;;;;;;;;;;;2.41;64.42;101072.75;10562216;28;20460;-81
2021/04/15 03:16:07;;;;;;;5.78;5.15;;;;;;;2.24;64.79;101073.31;10562939;28;19942;-81
2021/04/15 03:21:18;;;;;;;5.47;4.70;;;;;;;2.28;63.63;101067.34;10565135;28;20048;-80
2021/04/15 03:26:30;;;;;;;5.15;4.63;;;;;;;2.40;63.49;101071.88;10583556;28;20047;-82
2021/04/15 03:31:42;;;;;;;4.60;4.13;;;;;;;2.08;63.86;101070.41;10593074;28;20093;-80
2021/04/15 03:36:49;;;;;;;13.43;7.75;;;;;;;2.05;63.72;101076.41;10595151;28;20061;-81
2021/04/15 03:41:54;;;;;;;18.20;8.95;;;;;;;2.30;62.81;101066.47;10589110;28;20044;-80
2021/04/15 03:47:00;;;;;;;8.35;7.20;;;;;;;2.10;63.61;101074.78;10572371;28;20032;-80
2021/04/15 03:52:24;;;;;;;8.05;6.32;;;;;;;1.84;64.13;101068.22;10582051;28;20059;-80
2021/04/15 03:57:26;;;;;;;6.45;4.78;;;;;;;1.75;63.99;101067.16;10556463;28;20044;-81
2021/04/15 04:02:36;;;;;;;8.38;4.15;;;;;;;1.73;63.41;101068.88;10574411;28;20051;-80
2021/04/15 04:08:01;;;;;;;5.35;3.70;;;;;;;1.43;64.00;101078.59;10557245;28;20046;-80
2021/04/15 04:13:23;;;;;;;3.60;3.30;;;;;;;1.51;63.75;101074.44;10571336;28;20390;-82
2021/04/15 04:18:36;;;;;;;4.53;4.10;;;;;;;1.76;62.87;101078.41;10557346;28;20047;-81
2021/04/15 04:23:48;;;;;;;6.10;3.85;;;;;;;1.49;63.34;101076.97;10577862;28;20036;-79
2021/04/15 04:29:01;;;;;;;5.78;4.38;;;;;;;1.46;64.15;101083.81;10561630;28;20099;-79
2021/04/15 04:34:04;;;;;;;6.60;4.75;;;;;;;1.52;64.39;101082.25;10579069;28;20056;-80
2021/04/15 04:39:06;;;;;;;5.45;4.95;;;;;;;1.12;65.65;101096.00;10559769;28;20051;-80
2021/04/15 04:44:18;;;;;;;10.18;5.22;;;;;;;1.12;65.71;101108.09;10577661;28;20047;-80
2021/04/15 04:49:30;;;;;;;9.43;6.43;;;;;;;1.21;65.10;101097.94;10574166;28;20044;-75
2021/04/15 04:54:32;;;;;;;9.15;6.50;;;;;;;1.60;64.12;101100.56;10546826;28;20044;-75
2021/04/15 04:59:36;;;;;;;6.63;5.40;;;;;;;1.81;62.92;101105.31;10545991;28;20056;-74
2021/04/15 05:04:37;;;;;;;6.13;4.68;;;;;;;1.60;62.74;101115.22;10527900;28;20085;-75
2021/04/15 05:09:42;;;;;;;5.40;2.88;;;;;;;1.38;62.85;101116.47;10557488;28;20060;-75
2021/04/15 05:14:44;;;;;;;3.70;3.10;;;;;;;1.59;61.89;101116.94;10587637;28;20048;-77
2021/04/15 05:19:46;;;;;;;4.88;3.92;;;;;;;1.51;62.14;101116.78;10572317;28;20024;-76
2021/04/15 05:24:52;;;;;;;11.77;3.70;;;;;;;1.46;61.90;101114.91;10572261;28;20048;-76
2021/04/15 05:30:04;;;;;;;6.13;3.85;;;;;;;1.58;62.00;101120.38;10551985;28;20040;-75
2021/04/15 05:35:06;;;;;;;6.28;4.22;;;;;;;1.87;61.36;101115.81;10532470;28;20120;-75
2021/04/15 05:40:09;;;;;;;5.75;4.80;;;;;;;1.94;61.67;101120.25;10534368;28;20036;-75
2021/04/15 05:45:23;;;;;;;5.10;4.20;;;;;;;2.10;60.72;101113.69;10554114;28;20138;-75
2021/04/15 05:50:31;;;;;;;5.72;4.20;;;;;;;2.25;60.28;101111.38;10556837;28;20044;-76
2021/04/15 05:55:42;;;;;;;4.95;4.20;;;;;;;2.20;61.02;101115.59;10581554;28;20044;-75
2021/04/15 06:00:59;;;;;;;5.40;4.20;;;;;;;2.51;59.71;101114.47;10549655;28;20047;-76
2021/04/15 06:06:14;;;;;;;10.43;3.20;;;;;;;2.77;59.46;101121.84;10546810;28;20497;-75
2021/04/15 06:11:55;;;;;;;7.20;4.63;;;;;;;2.83;58.93;101119.34;10556029;28;20032;-75
2021/04/15 06:17:32;;;;;;;3.88;3.40;;;;;;;3.16;58.43;101107.78;10551687;28;20044;-75
2021/04/15 06:22:40;;;;;;;3.83;3.47;;;;;;;3.77;57.14;101106.06;10555068;28;20440;-75
2021/04/15 06:27:44;;;;;;;6.07;3.38;;;;;;;3.96;56.54;101110.63;10555309;28;20043;-76
2021/04/15 06:32:53;;;;;;;3.75;3.08;;;;;;;3.65;56.82;101114.56;10555187;28;20060;-75
2021/04/15 06:38:03;;;;;;;4.82;3.42;;;;;;;3.28;57.92;101110.56;10536245;28;20421;-75
2021/04/15 06:43:23;;;;;;;3.88;3.30;;;;;;;3.54;57.83;101109.22;10535612;28;20047;-77
2021/04/15 06:48:52;;;;;;;5.47;4.25;;;;;;;4.05;56.60;101107.25;10552800;28;20029;-76
2021/04/15 06:54:33;;;;;;;5.53;4.22;;;;;;;3.94;57.07;101101.03;10552900;28;20031;-78
2021/04/15 06:59:55;;;;;;;7.55;3.85;;;;;;;4.07;56.74;101109.88;10516222;28;20134;-75
2021/04/15 07:05:02;;;;;;;5.25;4.03;;;;;;;3.96;57.43;101110.63;10555731;28;20517;-77
2021/04/15 07:10:41;;;;;;;4.65;3.42;;;;;;;4.19;56.57;101110.91;10551979;28;20048;-75
2021/04/15 07:16:07;;;;;;;5.82;3.72;;;;;;;4.48;56.16;101107.75;10552919;28;20044;-75
2021/04/15 07:21:34;;;;;;;6.00;3.33;;;;;;;4.26;56.88;101112.72;10532029;28;20044;-75
2021/04/15 07:26:44;;;;;;;4.53;3.13;;;;;;;4.53;56.24;101104.31;10533635;28;20083;-77
2021/04/15 07:32:00;;;;;;;5.80;3.45;;;;;;;4.60;56.34;101112.19;10538374;28;20056;-76
2021/04/15 07:37:21;;;;;;;6.40;3.57;;;;;;;4.37;57.50;101107.63;10552786;28;20032;-76
2021/04/15 07:42:43;;;;;;;6.32;3.42;;;;;;;4.07;56.96;101108.13;10551141;28;20054;-76
2021/04/15 07:48:19;;;;;;;4.80;3.65;;;;;;;4.40;56.63;101107.66;10530624;28;20036;-76
2021/04/15 07:53:53;;;;;;;4.28;3.47;;;;;;;4.33;56.81;101115.38;10549469;28;20044;-75
2021/04/15 07:59:23;;;;;;;4.82;2.92;;;;;;;4.59;56.87;101116.53;10529981;28;20111;-77
2021/04/15 08:05:02;;;;;;;4.75;3.03;;;;;;;4.83;56.59;101121.13;10537732;28;20049;-76
2021/04/15 08:10:03;;;;;;;6.45;3.53;;;;;;;4.74;56.94;101114.09;10539771;28;20067;-76
2021/04/15 08:15:31;;;;;;;3.17;2.40;;;;;;;4.42;58.04;101115.47;10536862;28;20055;-75
2021/04/15 08:21:04;;;;;;;3.95;2.30;;;;;;;4.92;57.72;101120.31;10553199;28;20040;-75
2021/04/15 08:26:43;;;;;;;3.63;2.60;;;;;;;4.95;56.17;101118.59;10551493;28;20054;-75
2021/04/15 08:32:06;;;;;;;3.00;2.05;;;;;;;5.03;56.33;101114.31;10551788;28;20086;-76
2021/04/15 08:37:29;;;;;;;2.83;1.90;;;;;;;4.95;55.73;101117.72;10556972;28;20044;-77
2021/04/15 08:42:34;;;;;;;2.90;1.80;;;;;;;5.04;56.20;101115.19;10541565;28;20068;-76
2021/04/15 08:48:36;;;;;;;5.75;2.00;;;;;;;5.18;54.82;101108.38;10557257;28;20036;-76
2021/04/15 08:54:29;;;;;;;2.22;1.90;;;;;;;5.31;54.66;101110.19;10383922;28;20076;-75
2021/04/15 08:59:55;;;;;;;4.03;1.98;;;;;;;5.55;53.36;101113.81;10299432;28;20058;-77
2021/04/15 09:04:56;;;;;;;2.88;1.80;;;;;;;5.21;54.40;101104.91;10386654;28;20050;-76
2021/04/15 09:10:08;;;;;;;3.70;2.17;;;;;;;5.97;52.63;101088.81;10361838;28;20053;-77
2021/04/15 09:15:24;;;;;;;3.50;1.80;;;;;;;5.97;52.07;101094.91;10381415;28;20089;-76
2021/04/15 09:20:41;;;;;;;4.37;1.83;;;;;;;5.78;52.73;101096.56;10390127;28;20247;-76
2021/04/15 09:25:45;;;;;;;2.28;1.55;;;;;;;5.89;52.28;101094.00;10528523;28;20040;-77
2021/04/15 09:30:54;;;;;;;2.65;1.67;;;;;;;6.22;51.61;101084.56;10533515;28;20044;-75
2021/04/15 09:36:09;;;;;;;2.63;1.58;;;;;;;6.31;50.94;101085.47;10532112;28;20101;-74
2021/04/15 09:41:13;;;;;;;2.33;1.92;;;;;;;6.05;51.77;101090.59;10520030;28;20083;-76
2021/04/15 09:46:28;;;;;;;3.17;1.67;;;;;;;6.49;50.65;101076.78;10569625;28;20064;-76
2021/04/15 09:51:39;;;;;;;8.15;1.70;;;;;;;6.16;50.56;101077.59;10567922;28;20116;-76
2021/04/15 09:56:54;;;;;;;17.55;2.00;;;;;;;6.29;50.66;101071.53;10576927;28;20040;-76
2021/04/15 10:02:15;;;;;;;1.83;1.50;;;;;;;6.32;48.95;101070.66;10546923;28;20134;-76
2021/04/15 10:07:27;;;;;;;1.75;1.30;;;;;;;6.56;48.70;101068.09;10525855;28;20040;-75
2021/04/15 10:12:40;;;;;;;2.40;2.20;;;;;;;6.66;48.35;101066.38;10527484;28;20044;-76
2021/04/15 10:17:59;;;;;;;2.67;1.75;;;;;;;6.67;47.51;101070.72;10545086;28;20055;-77
2021/04/15 10:23:33;;;;;;;2.72;1.90;;;;;;;6.43;47.75;101061.13;10543786;28;20044;-77
2021/04/15 10:29:11;;;;;;;2.50;1.77;;;;;;;6.46;47.70;101055.91;10530363;28;20039;-77
2021/04/15 10:34:31;;;;;;;2.33;1.48;;;;;;;6.47;47.78;101056.78;10462963;28;20048;-76
2021/04/15 10:39:57;;;;;;;6.38;2.03;;;;;;;6.32;49.33;101053.25;10588227;28;20041;-77
2021/04/15 10:45:09;;;;;;;3.33;1.35;;;;;;;6.20;47.72;101053.25;10589822;28;20055;-78
2021/04/15 10:50:38;;;;;;;1.70;1.30;;;;;;;6.38;48.06;101047.19;10568248;28;20047;-76
2021/04/15 10:55:46;;;;;;;2.83;1.50;;;;;;;6.38;48.20;101041.97;10539405;28;20044;-76
2021/04/15 11:00:48;;;;;;;6.57;1.63;;;;;;;6.46;48.12;101034.13;10557027;28;20111;-77
2021/04/15 11:05:54;;;;;;;1.52;1.00;;;;;;;6.32;47.06;101036.72;10555820;28;20429;-76
2021/04/15 11:11:23;;;;;;;1.30;1.07;;;;;;;6.23;46.95;101039.31;10556409;28;20401;-78
2021/04/15 11:16:26;;;;;;;3.25;1.10;;;;;;;5.99;46.30;101030.56;10521602;28;20048;-77
2021/04/15 11:21:34;;;;;;;1.15;0.80;;;;;;;6.31;45.83;101032.38;10537892;28;20111;-77
2021/04/15 11:26:46;;;;;;;4.03;1.10;;;;;;;6.34;46.87;101032.38;10554207;28;20543;-76
2021/04/15 11:31:48;;;;;;;1.10;0.80;;;;;;;6.08;46.63;101034.94;10553689;28;20068;-77
2021/04/15 11:37:00;;;;;;;1.58;0.80;;;;;;;6.03;48.30;101039.28;10534582;28;20072;-76
2021/04/15 11:42:10;;;;;;;2.20;1.23;;;;;;;6.04;48.83;101044.50;10552949;28;20040;-77
2021/04/15 11:47:22;;;;;;;2.95;1.10;;;;;;;5.40;51.50;101057.25;10552517;28;20042;-77
2021/04/15 11:52:33;;;;;;;1.85;1.00;;;;;;;5.15;54.26;101064.03;10551871;28;20089;-77
2021/04/15 11:57:39;;;;;;;1.67;1.10;;;;;;;5.17;54.94;101061.41;10538728;28;20107;-78
2021/04/15 12:03:14;;;;;;;1.90;0.93;;;;;;;5.60;54.19;101051.25;10583604;28;20048;-77
2021/04/15 12:08:31;;;;;;;1.52;0.90;;;;;;;5.68;52.30;101052.16;10583221;28;20044;-79
2021/04/15 12:13:43;;;;;;;1.17;0.80;;;;;;;5.80;51.85;101037.44;10589119;28;20035;-78
2021/04/15 12:18:53;;;;;;;2.22;1.08;;;;;;;5.73;53.33;101045.22;10587472;28;20482;-77
2021/04/15 12:24:19;;;;;;;1.77;1.10;;;;;;;5.20;56.73;101059.72;10585626;28;20048;-77
2021/04/15 12:29:30;;;;;;;4.38;1.20;;;;;;;5.18;57.61;101053.63;10569481;28;20066;-77
2021/04/15 12:34:51;;;;;;;2.92;1.38;;;;;;;5.26;56.28;101045.84;10590511;28;20043;-77
2021/04/15 12:40:11;;;;;;;1.80;0.90;;;;;;;5.41;56.37;101047.69;10573226;28;20122;-78
2021/04/15 12:45:29;;;;;;;1.52;0.98;;;;;;;5.43;56.82;101051.16;10552947;28;20044;-78
2021/04/15 12:50:31;;;;;;;4.40;1.35;;;;;;;5.90;55.73;101033.13;10566880;28;20066;-78
2021/04/15 12:55:32;;;;;;;1.77;1.08;;;;;;;5.77;53.98;101041.75;10534834;28;20040;-77
2021/04/15 13:00:41;;;;;;;1.88;1.08;;;;;;;6.27;53.31;101028.00;10549534;28;20093;-77
2021/04/15 13:05:50;;;;;;;1.98;1.20;;;;;;;6.30;52.93;101022.81;10547182;28;20111;-77
2021/04/15 13:10:53;;;;;;;2.88;1.60;;;;;;;6.02;53.41;101014.91;10528270;28;20426;-76
2021/04/15 13:15:54;;;;;;;2.13;1.10;;;;;;;6.11;52.44;101010.56;10545365;28;20044;-76
2021/04/15 13:21:25;;;;;;;2.08;1.83;;;;;;;5.98;52.70;101009.69;10527807;28;20044;-76
2021/04/15 13:26:30;;;;;;;3.53;1.88;;;;;;;5.88;52.93;101002.66;10510397;28;20047;-77
2021/04/15 13:31:54;;;;;;;3.05;1.48;;;;;;;5.75;53.38;101001.72;10545811;28;20044;-76
2021/04/15 13:37:29;;;;;;;2.88;1.05;;;;;;;5.81;52.88;100997.44;10526548;28;20040;-77
2021/04/15 13:42:34;;;;;;;1.70;1.10;;;;;;;5.64;51.51;100993.03;10525291;28;20564;-76
2021/04/15 13:47:45;;;;;;;1.73;1.00;;;;;;;5.50;51.61;100990.34;10526392;28;20155;-76
2021/04/15 13:52:46;;;;;;;1.50;0.90;;;;;;;5.26;54.39;101002.41;10544078;28;20130;-75
2021/04/15 13:57:48;;;;;;;2.10;1.35;;;;;;;4.92;58.83;101010.91;10543375;28;20074;-76
2021/04/15 14:02:52;;;;;;;2.22;1.50;;;;;;;4.78;61.06;101013.38;10543054;28;20044;-76
2021/04/15 14:07:58;;;;;;;2.95;1.80;;;;;;;4.79;62.81;101010.78;10543564;28;20028;-76
2021/04/15 14:13:08;;;;;;;1.63;1.52;;;;;;;4.80;62.49;101016.88;10525065;28;20070;-76
2021/04/15 14:18:19;;;;;;;1.20;1.10;;;;;;;4.70;61.02;101010.72;10544726;28;20075;-76
2021/04/15 14:23:32;;;;;;;2.80;1.27;;;;;;;4.89;59.07;101014.34;10545875;28;20094;-76
2021/04/15 14:28:37;;;;;;;0.80;0.70;;;;;;;4.69;58.33;101015.91;10568512;28;20044;-77
2021/04/15 14:33:38;;;;;;;1.30;0.85;;;;;;;4.70;58.64;101005.53;10552506;28;20432;-76
2021/04/15 14:38:41;;;;;;;2.03;0.93;;;;;;;4.85;58.05;101009.09;10534335;28;20123;-76
2021/04/15 14:43:43;;;;;;;1.58;0.88;;;;;;;4.72;58.07;101000.31;10553030;28;20492;-77
2021/04/15 14:48:45;;;;;;;0.80;0.80;;;;;;;4.82;58.85;101004.72;10552425;28;20043;-76
2021/04/15 14:53:47;;;;;;;5.47;0.90;;;;;;;4.65;60.50;101011.53;10553595;28;20040;-76
2021/04/15 14:58:51;;;;;;;1.10;0.90;;;;;;;4.68;61.46;101007.22;10534938;28;20036;-75
2021/04/15 15:03:52;;;;;;;2.95;0.90;;;;;;;4.60;62.16;101006.28;10534267;28;20074;-75
2021/04/15 15:08:55;;;;;;;2.60;1.10;;;;;;;4.69;62.56;101005.50;10535676;28;20043;-77
2021/04/15 15:13:58;;;;;;;1.63;1.15;;;;;;;4.75;62.28;100992.53;10518895;28;20383;-77
2021/04/15 15:19:01;;;;;;;2.03;0.73;;;;;;;5.03;60.92;100998.78;10533219;28;20595;-77
2021/04/15 15:24:05;;;;;;;1.33;1.23;;;;;;;5.05;61.42;100999.69;10534273;28;20468;-77
2021/04/15 15:29:17;;;;;;;1.58;0.70;;;;;;;4.64;60.71;100999.38;10533471;28;20051;-76
2021/04/15 15:34:36;;;;;;;0.70;0.70;;;;;;;4.33;60.64;100995.66;10536165;28;20123;-75
2021/04/15 15:39:57;;;;;;;2.08;0.88;;;;;;;4.17;60.80;100997.25;10550729;28;20069;-77
2021/04/15 15:44:58;;;;;;;1.20;0.90;;;;;;;4.58;60.63;100995.00;10552209;28;20497;-76
2021/04/15 15:50:10;;;;;;;15.07;10.23;;;;;;;4.59;59.98;100988.94;10551430;28;20551;-76
2021/04/15 15:55:30;;;;;;;1.40;0.80;;;;;;;4.36;59.09;100986.13;10551398;28;20047;-76
2021/04/15 16:00:34;;;;;;;2.15;0.90;;;;;;;4.39;60.65;100988.78;10555453;28;20529;-76
2021/04/15 16:05:37;;;;;;;6.47;1.02;;;;;;;4.29;60.02;100986.94;10569375;28;20044;-76
2021/04/15 16:10:41;;;;;;;1.00;0.90;;;;;;;4.20;60.80;100979.91;10560731;28;20406;-76
2021/04/15 16:15:48;;;;;;;3.70;1.00;;;;;;;4.31;60.57;100977.41;10578310;28;20092;-76
2021/04/15 16:21:03;;;;;;;2.08;1.10;;;;;;;4.20;60.39;100969.50;10562805;28;20048;-77
2021/04/15 16:26:05;;;;;;;2.78;0.98;;;;;;;4.07;59.79;100961.56;10553160;28;20043;-77
2021/04/15 16:31:06;;;;;;;1.83;1.13;;;;;;;4.14;60.30;100958.19;10552099;28;20044;-77
2021/04/15 16:36:09;;;;;;;2.78;1.02;;;;;;;4.21;59.55;100970.41;10554823;28;20048;-77
2021/04/15 16:41:15;;;;;;;3.03;0.90;;;;;;;4.08;60.31;100968.53;10553113;28;20070;-76
2021/04/15 16:46:17;;;;;;;1.77;1.00;;;;;;;3.92;61.19;100973.56;10534233;28;20051;-76
2021/04/15 16:51:18;;;;;;;1.70;0.90;;;;;;;3.85;61.90;100969.19;10534800;28;20116;-76
2021/04/15 16:56:20;;;;;;;1.52;1.10;;;;;;;3.69;63.41;100965.53;10559307;28;20032;-77
2021/04/15 17:01:21;;;;;;;1.50;1.00;;;;;;;3.66;62.79;100970.69;10570387;28;20055;-78
2021/04/15 17:06:23;;;;;;;1.58;1.17;;;;;;;3.58;63.54;100971.44;10551409;28;20044;-76
2021/04/15 17:11:25;;;;;;;3.17;1.10;;;;;;;3.70;63.55;100975.06;10554006;28;20502;-76
2021/04/15 17:16:27;;;;;;;3.03;0.95;;;;;;;3.48;63.79;100970.47;10553543;28;20040;-77
2021/04/15 17:21:28;;;;;;;2.30;1.50;;;;;;;3.50;64.05;100972.25;10536221;28;20391;-77
2021/04/15 17:26:34;;;;;;;1.95;1.13;;;;;;;3.50;63.87;100967.06;10533453;28;20040;-77
2021/04/15 17:31:38;;;;;;;8.38;1.80;;;;;;;3.60;63.60;100967.16;10550929;28;20058;-75
2021/04/15 17:36:41;;;;;;;2.17;1.13;;;;;;;3.39;64.51;100970.38;10551219;28;20047;-76
2021/04/15 17:41:44;;;;;;;2.70;1.55;;;;;;;3.39;64.76;100972.97;10539860;28;20040;-76
2021/04/15 17:46:46;;;;;;;2.40;1.30;;;;;;;3.50;64.29;100971.38;10552623;28;20035;-75
2021/04/15 17:51:51;;;;;;;1.70;1.20;;;;;;;3.52;64.47;100967.06;10538868;23;20416;-68
2021/04/15 17:56:52;;;;;;;10.88;1.55;;;;;;;3.43;64.59;100969.56;10529940;28;20048;-66
2021/04/15 18:01:55;;;;;;;2.22;1.00;;;;;;;3.26;64.61;100972.81;10528886;28;20121;-67
2021/04/15 18:06:57;;;;;;;2.13;1.13;;;;;;;3.35;64.55;100984.19;10529439;28;20105;-66
2021/04/15 18:11:59;;;;;;;2.28;1.15;;;;;;;3.18;64.74;100978.75;10546518;28;20048;-67
2021/04/15 18:17:00;;;;;;;1.70;1.20;;;;;;;3.11;65.41;100987.34;10546104;28;20109;-68
2021/04/15 18:22:02;;;;;;;1.30;0.85;;;;;;;3.05;64.93;100982.91;10529192;28;20359;-69
2021/04/15 18:27:04;;;;;;;1.55;1.05;;;;;;;3.00;65.50;100984.56;10548845;28;20040;-68
2021/04/15 18:32:06;;;;;;;1.48;1.02;;;;;;;2.87;66.07;100991.31;10551764;28;20044;-69
2021/04/15 18:37:11;;;;;;;1.20;1.10;;;;;;;2.73;66.47;100996.28;10549970;28;20044;-69
2021/04/15 18:42:13;;;;;;;1.30;1.20;;;;;;;2.89;65.94;100993.94;10534457;28;20094;-69
2021/04/15 18:47:14;;;;;;;1.10;0.88;;;;;;;2.92;65.64;100999.16;10537310;28;20048;-67
2021/04/15 18:52:16;;;;;;;2.20;1.15;;;;;;;2.68;66.33;100997.06;10519376;28;20498;-68
2021/04/15 18:57:18;;;;;;;1.75;1.40;;;;;;;2.80;66.85;100994.69;10538806;28;20070;-68
2021/04/15 19:02:20;;;;;;;2.50;1.40;;;;;;;2.77;66.75;100997.22;10550390;28;20040;-67
2021/04/15 19:07:21;;;;;;;2.35;1.23;;;;;;;2.86;66.92;100996.50;10549462;28;20037;-68
2021/04/15 19:12:22;;;;;;;2.97;1.42;;;;;;;2.78;66.75;100998.97;10531718;28;20485;-69
2021/04/15 19:17:24;;;;;;;2.22;1.38;;;;;;;2.44;67.76;100995.84;10537506;28;20051;-67
2021/04/15 19:22:25;;;;;;;1.45;1.15;;;;;;;2.45;68.40;100997.59;10555934;28;20048;-68
2021/04/15 19:27:26;;;;;;;2.70;1.55;;;;;;;2.56;68.51;101002.06;10555928;28;20040;-69
2021/04/15 19:32:28;;;;;;;2.53;1.65;;;;;;;2.62;68.55;100997.88;10555029;28;20072;-68
2021/04/15 19:37:29;;;;;;;2.15;1.45;;;;;;;2.51;69.19;100999.41;10547527;28;20056;-69
2021/04/15 19:42:31;;;;;;;2.40;1.70;;;;;;;2.27;70.55;101000.75;10561724;28;20047;-69
2021/04/15 19:47:35;;;;;;;1.83;1.67;;;;;;;2.40;70.25;100999.22;10540225;28;20374;-69
2021/04/15 19:52:37;;;;;;;1.88;1.70;;;;;;;2.42;70.02;101005.31;10554391;28;20108;-69
2021/04/15 19:57:39;;;;;;;5.50;1.88;;;;;;;2.39;70.32;101000.09;10555747;28;20044;-68
2021/04/15 20:02:40;;;;;;;2.08;1.70;;;;;;;2.12;71.51;101004.78;10536734;28;20151;-69
2021/04/15 20:07:42;;;;;;;2.38;1.95;;;;;;;2.33;71.15;100993.91;10543775;28;20040;-69
2021/04/15 20:12:43;;;;;;;2.65;1.70;;;;;;;2.24;71.14;100989.44;10535967;28;20072;-68
2021/04/15 20:17:45;;;;;;;4.95;2.50;;;;;;;2.28;71.36;100980.84;10554107;28;20044;-69
2021/04/15 20:22:47;;;;;;;2.75;1.90;;;;;;;2.06;71.58;100979.59;10556502;28;20488;-69
2021/04/15 20:27:50;;;;;;;2.35;2.00;;;;;;;2.07;72.39;100975.28;10553957;28;20401;-68
2021/04/15 20:32:52;;;;;;;2.80;2.00;;;;;;;2.12;72.15;100977.09;10554507;28;20086;-69
2021/04/15 20:37:53;;;;;;;2.47;1.63;;;;;;;2.24;72.20;100968.69;10537184;28;20110;-69
2021/04/15 20:42:55;;;;;;;2.92;1.90;;;;;;;2.17;71.80;100966.81;10554514;28;20055;-68
2021/04/15 20:47:56;;;;;;;2.63;1.55;;;;;;;2.21;71.67;100966.91;10555213;28;20044;-68
2021/04/15 20:52:58;;;;;;;2.33;1.85;;;;;;;2.43;71.15;100964.66;10552926;28;20060;-69
2021/04/15 20:58:00;;;;;;;2.22;1.70;;;;;;;2.08;71.46;100957.19;10554387;28;20387;-68
2021/04/15 21:03:02;;;;;;;2.92;1.85;;;;;;;2.03;71.55;100961.38;10534257;28;20052;-67
2021/04/15 21:08:04;;;;;;;2.20;1.85;;;;;;;1.94;72.08;100956.03;10534421;28;20074;-68
2021/04/15 21:13:08;;;;;;;2.38;1.95;;;;;;;2.13;71.86;100960.72;10535148;28;20138;-68
2021/04/15 21:18:10;;;;;;;3.67;1.95;;;;;;;2.06;71.79;100958.00;10552777;28;20036;-69
2021/04/15 21:23:12;;;;;;;1.60;1.42;;;;;;;1.98;71.93;100952.66;10533254;28;20146;-67
2021/04/15 21:28:15;;;;;;;3.10;1.77;;;;;;;2.00;71.96;100951.84;10551085;28;20057;-68
2021/04/15 21:33:17;;;;;;;1.77;1.50;;;;;;;1.91;71.77;100949.09;10550552;28;20070;-69
2021/04/15 21:38:22;;;;;;;1.95;1.40;;;;;;;1.91;71.68;100946.50;10550450;28;20051;-68
2021/04/15 21:43:24;;;;;;;1.77;1.40;;;;;;;1.89;71.79;100942.13;10551734;28;20413;-67
2021/04/15 21:48:28;;;;;;;2.00;1.45;;;;;;;1.86;71.29;100936.88;10532255;28;20051;-66
2021/04/15 21:53:32;;;;;;;2.03;1.67;;;;;;;1.94;72.03;100938.75;10541222;28;20032;-67
2021/04/15 21:58:35;;;;;;;2.25;1.77;;;;;;;1.91;72.42;100936.13;10550046;28;20048;-68
2021/04/15 22:03:37;;;;;;;3.65;2.08;;;;;;;1.79;72.92;100933.31;10531640;28;20398;-68
2021/04/15 22:08:43;;;;;;;2.97;2.10;;;;;;;1.78;73.07;100939.34;10531605;28;20048;-67
2021/04/15 22:13:46;;;;;;;2.92;2.40;;;;;;;1.59;72.80;100932.06;10531178;28;20072;-67
2021/04/15 22:18:53;;;;;;;2.00;1.80;;;;;;;1.47;73.37;100931.00;10548985;28;20046;-67
2021/04/15 22:23:56;;;;;;;2.55;2.08;;;;;;;1.51;73.08;100924.16;10530306;28;20044;-68
2021/04/15 22:29:00;;;;;;;2.80;1.80;;;;;;;1.45;73.25;100930.06;10513940;28;20040;-67
2021/04/15 22:34:04;;;;;;;2.40;1.80;;;;;;;1.21;74.14;100932.19;10547874;28;20397;-68
2021/04/15 22:39:05;;;;;;;2.50;1.52;;;;;;;1.24;74.15;100932.28;10546596;28;20051;-68
2021/04/15 22:44:07;;;;;;;3.63;1.88;;;;;;;1.20;73.93;100920.97;10547778;28;20048;-68
2021/04/15 22:49:08;;;;;;;2.53;1.88;;;;;;;1.23;74.27;100908.06;10531036;28;20044;-66
2021/04/15 22:54:11;;;;;;;2.03;1.83;;;;;;;1.17;74.43;100905.34;10555946;28;20036;-66
2021/04/15 22:59:13;;;;;;;2.22;1.98;;;;;;;1.11;74.60;100901.78;10555224;28;20036;-66
2021/04/15 23:04:14;;;;;;;2.67;1.80;;;;;;;1.04;74.59;100903.34;10554083;28;20047;-68
2021/04/15 23:09:15;;;;;;;2.25;2.05;;;;;;;0.99;74.69;100904.97;10539220;28;20044;-68
2021/04/15 23:14:17;;;;;;;2.55;1.73;;;;;;;1.15;74.34;100912.22;10554766;28;20078;-68
2021/04/15 23:19:18;;;;;;;2.42;2.20;;;;;;;0.92;75.06;100905.69;10556132;28;20090;-67
2021/04/15 23:24:19;;;;;;;2.55;2.35;;;;;;;0.80;75.55;100908.91;10554964;28;20119;-66
2021/04/15 23:29:20;;;;;;;3.45;2.33;;;;;;;0.95;75.37;100901.44;10555931;28;20047;-68
2021/04/15 23:34:21;;;;;;;3.70;3.20;;;;;;;1.01;74.74;100898.09;10555045;28;20044;-66
2021/04/15 23:39:23;;;;;;;1.92;1.73;;;;;;;1.10;74.60;100887.94;10536050;28;20066;-68
2021/04/15 23:44:24;;;;;;;3.30;1.75;;;;;;;1.16;74.38;100875.13;10554866;28;20054;-67
2021/04/15 23:49:25;;;;;;;2.28;2.00;;;;;;;0.95;74.55;100880.75;10535874;28;20051;-66
2021/04/15 23:54:26;;;;;;;2.95;1.95;;;;;;;0.74;75.32;100878.56;10553228;28;20043;-68
2021/04/15 23:59:28;;;;;;;3.53;2.22;;;;;;;0.95;75.40;100872.97;10551617;28;20044;-67
